createdAt,value
2022-12-18T00:01:28.191Z,100263.40
2022-12-18T00:03:56.756Z,100272.80
2022-12-18T00:06:25.326Z,100272.40
2022-12-18T00:08:52.027Z,100271.20
2022-12-18T00:11:22.224Z,100271.20
2022-12-18T00:13:49.771Z,100272.80
2022-12-18T00:16:21.749Z,100275.80
2022-12-18T00:18:50.487Z,100273.00
2022-12-18T00:21:17.578Z,100275.20
2022-12-18T00:23:45.616Z,100274.40
2022-12-18T00:26:18.493Z,100278.00
2022-12-18T00:28:46.805Z,100282.00
2022-12-18T00:31:20.947Z,100289.20
2022-12-18T00:33:48.239Z,100294.00
2022-12-18T00:36:24.208Z,100297.60
2022-12-18T00:38:51.148Z,100299.60
2022-12-18T00:41:39.408Z,100299.80
2022-12-18T00:44:08.529Z,100306.00
2022-12-18T00:46:35.027Z,100314.00
2022-12-18T00:49:01.470Z,100320.20
2022-12-18T00:51:28.107Z,100319.40
2022-12-18T00:53:54.827Z,100332.80
2022-12-18T00:56:21.241Z,100322.20
2022-12-18T00:58:47.631Z,100323.40
2022-12-18T01:01:14.473Z,100329.40
2022-12-18T01:03:42.281Z,100337.20
2022-12-18T01:06:12.640Z,100341.40
2022-12-18T01:08:40.239Z,100340.20
2022-12-18T01:11:13.294Z,100342.40
2022-12-18T01:13:41.031Z,100339.80
2022-12-18T01:16:08.523Z,100337.00
2022-12-18T01:18:35.448Z,100344.80
2022-12-18T01:21:11.028Z,100349.00
2022-12-18T01:23:37.807Z,100351.80
2022-12-18T01:26:10.963Z,100349.60
2022-12-18T01:28:45.096Z,100351.20
2022-12-18T01:31:30.079Z,100356.60
2022-12-18T01:33:56.952Z,100359.20
2022-12-18T01:36:27.685Z,100361.80
2022-12-18T01:38:55.126Z,100366.20
2022-12-18T01:41:27.106Z,100365.20
2022-12-18T01:44:00.767Z,100370.80
2022-12-18T01:46:28.615Z,100373.20
2022-12-18T01:49:00.438Z,100376.40
2022-12-18T01:51:29.659Z,100385.40
2022-12-18T01:53:56.403Z,100388.80
2022-12-18T01:56:23.434Z,100386.80
2022-12-18T01:59:06.978Z,100391.80
2022-12-18T02:01:34.174Z,100396.20
2022-12-18T02:04:25.347Z,100398.80
2022-12-18T02:07:22.680Z,100405.80
2022-12-18T02:10:04.755Z,100403.40
2022-12-18T02:12:45.971Z,100402.20
2022-12-18T02:15:35.503Z,100402.60
2022-12-18T02:18:19.637Z,100407.00
2022-12-18T02:21:31.279Z,100418.20
2022-12-18T02:24:41.705Z,100427.00
2022-12-18T02:27:11.610Z,100423.20
2022-12-18T02:29:59.119Z,100423.00
2022-12-18T02:32:33.904Z,100424.00
2022-12-18T02:35:03.573Z,100434.00
2022-12-18T02:37:32.732Z,100434.60
2022-12-18T02:40:01.113Z,100438.40
2022-12-18T02:42:29.169Z,100440.80
2022-12-18T02:44:55.555Z,100448.40
2022-12-18T02:47:28.460Z,100448.60
2022-12-18T02:50:09.116Z,100449.60
2022-12-18T02:52:56.346Z,100449.20
2022-12-18T02:55:51.539Z,100451.40
2022-12-18T02:58:34.130Z,100451.20
2022-12-18T03:01:52.928Z,100458.80
2022-12-18T03:04:29.306Z,100459.20
2022-12-18T03:07:03.544Z,100454.00
2022-12-18T03:09:38.153Z,100456.20
2022-12-18T03:12:23.914Z,100459.20
2022-12-18T03:15:18.376Z,100455.60
2022-12-18T03:17:58.285Z,100461.00
2022-12-18T03:20:29.195Z,100461.80
2022-12-18T03:23:07.863Z,100467.00
2022-12-18T03:25:41.773Z,100471.20
2022-12-18T03:28:16.644Z,100478.40
2022-12-18T03:30:47.167Z,100475.80
2022-12-18T03:33:24.658Z,100483.00
2022-12-18T03:35:51.601Z,100496.00
2022-12-18T03:38:18.270Z,100500.80
2022-12-18T03:41:16.768Z,100502.00
2022-12-18T03:44:11.174Z,100510.40
2022-12-18T03:46:59.668Z,100514.20
2022-12-18T03:49:39.695Z,100514.20
2022-12-18T03:52:21.621Z,100522.20
2022-12-18T03:54:49.030Z,100527.00
2022-12-18T03:57:25.367Z,100528.00
2022-12-18T04:00:00.501Z,100529.40
2022-12-18T04:02:27.473Z,100530.00
2022-12-18T04:05:00.187Z,100524.80
2022-12-18T04:07:28.490Z,100528.00
2022-12-18T04:10:01.880Z,100534.60
2022-12-18T04:12:31.138Z,100537.60
2022-12-18T04:14:57.517Z,100541.20
2022-12-18T04:17:24.727Z,100541.80
2022-12-18T04:19:51.586Z,100541.80
2022-12-18T04:22:19.383Z,100536.40
2022-12-18T04:24:47.040Z,100547.60
2022-12-18T04:27:13.917Z,100547.20
2022-12-18T04:29:40.503Z,100551.00
2022-12-18T04:32:06.918Z,100549.60
2022-12-18T04:34:33.305Z,100556.80
2022-12-18T04:36:59.750Z,100558.20
2022-12-18T04:39:26.191Z,100560.60
2022-12-18T04:41:53.032Z,100565.40
2022-12-18T04:44:19.412Z,100577.20
2022-12-18T04:46:45.923Z,100585.60
2022-12-18T04:49:12.688Z,100583.40
2022-12-18T04:51:42.640Z,100582.60
2022-12-18T04:54:09.063Z,100589.80
2022-12-18T04:56:35.527Z,100585.60
2022-12-18T04:59:01.975Z,100591.80
2022-12-18T05:01:34.284Z,100591.60
2022-12-18T05:04:02.883Z,100596.20
2022-12-18T05:06:32.124Z,100599.00
2022-12-18T05:08:59.035Z,100598.00
2022-12-18T05:11:25.463Z,100605.60
2022-12-18T05:13:51.976Z,100615.80
2022-12-18T05:16:18.477Z,100603.60
2022-12-18T05:18:45.135Z,100610.40
2022-12-18T05:21:11.614Z,100608.60
2022-12-18T05:23:38.776Z,100614.40
2022-12-18T05:26:08.669Z,100616.00
2022-12-18T05:28:36.803Z,100619.00
2022-12-18T05:31:05.193Z,100614.40
2022-12-18T05:33:34.788Z,100619.20
2022-12-18T05:36:04.415Z,100621.40
2022-12-18T05:38:33.707Z,100623.80
2022-12-18T05:41:00.158Z,100628.60
2022-12-18T05:43:28.213Z,100626.20
2022-12-18T05:45:55.894Z,100626.00
2022-12-18T05:48:23.196Z,100623.80
2022-12-18T05:50:51.816Z,100628.40
2022-12-18T05:53:21.229Z,100634.80
2022-12-18T05:55:48.242Z,100640.20
2022-12-18T05:58:15.941Z,100644.00
2022-12-18T06:00:46.413Z,100646.00
2022-12-18T06:03:14.741Z,100650.40
2022-12-18T06:05:45.085Z,100654.40
2022-12-18T06:08:13.602Z,100662.20
2022-12-18T06:10:41.810Z,100662.60
2022-12-18T06:13:08.915Z,100659.80
2022-12-18T06:15:38.170Z,100661.20
2022-12-18T06:18:04.934Z,100663.20
2022-12-18T06:20:33.636Z,100665.80
2022-12-18T06:23:00.929Z,100675.80
2022-12-18T06:25:27.427Z,100679.00
2022-12-18T06:27:54.143Z,100683.80
2022-12-18T06:30:20.984Z,100689.80
2022-12-18T06:32:54.633Z,100690.20
2022-12-18T06:35:23.241Z,100694.80
2022-12-18T06:37:49.759Z,100698.00
2022-12-18T06:40:17.080Z,100701.80
2022-12-18T06:42:43.552Z,100713.20
2022-12-18T06:45:12.036Z,100712.80
2022-12-18T06:47:38.404Z,100719.80
2022-12-18T06:50:06.527Z,100723.00
2022-12-18T06:52:33.849Z,100721.20
2022-12-18T06:55:01.345Z,100727.00
2022-12-18T06:57:27.699Z,100728.00
2022-12-18T06:59:55.517Z,100729.60
2022-12-18T07:02:22.125Z,100740.20
2022-12-18T07:04:48.656Z,100750.80
2022-12-18T07:07:15.107Z,100763.20
2022-12-18T07:09:41.499Z,100759.40
2022-12-18T07:12:08.966Z,100767.80
2022-12-18T07:14:35.375Z,100769.80
2022-12-18T07:17:01.875Z,100764.00
2022-12-18T07:19:28.423Z,100773.00
2022-12-18T07:21:55.687Z,100774.00
2022-12-18T07:24:22.209Z,100783.60
2022-12-18T07:26:48.889Z,100787.80
2022-12-18T07:29:15.267Z,100787.40
2022-12-18T07:31:41.770Z,100788.60
2022-12-18T07:34:16.266Z,100790.20
2022-12-18T07:36:42.950Z,100795.20
2022-12-18T07:39:11.568Z,100797.00
2022-12-18T07:41:40.266Z,100798.40
2022-12-18T07:44:11.867Z,100800.00
2022-12-18T07:46:38.999Z,100798.00
2022-12-18T07:49:05.396Z,100789.00
2022-12-18T07:51:31.894Z,100791.80
2022-12-18T07:53:58.350Z,100788.40
2022-12-18T07:56:29.481Z,100800.60
2022-12-18T07:58:57.552Z,100809.00
2022-12-18T08:01:24.448Z,100808.00
2022-12-18T08:03:52.420Z,100803.60
2022-12-18T08:06:22.457Z,100803.20
2022-12-18T08:08:56.721Z,100811.20
2022-12-18T08:11:26.360Z,100815.20
2022-12-18T08:13:53.327Z,100821.00
2022-12-18T08:16:21.094Z,100826.00
2022-12-18T08:18:48.049Z,100827.00
2022-12-18T08:21:28.550Z,100819.20
2022-12-18T08:24:00.399Z,100822.20
2022-12-18T08:26:30.511Z,100828.00
2022-12-18T08:28:59.513Z,100834.20
2022-12-18T08:31:28.870Z,100828.80
2022-12-18T08:33:56.680Z,100840.00
2022-12-18T08:36:24.894Z,100846.40
2022-12-18T08:38:52.033Z,100836.20
2022-12-18T08:41:19.429Z,100835.00
2022-12-18T08:44:05.179Z,100835.20
2022-12-18T08:46:41.865Z,100842.40
2022-12-18T08:49:10.898Z,100837.00
2022-12-18T08:51:38.207Z,100840.60
2022-12-18T08:54:06.526Z,100846.20
2022-12-18T08:56:34.282Z,100850.20
2022-12-18T08:59:00.928Z,100850.60
2022-12-18T09:01:28.169Z,100849.80
2022-12-18T09:03:55.188Z,100858.80
2022-12-18T09:06:23.467Z,100854.60
2022-12-18T09:08:50.532Z,100862.40
2022-12-18T09:11:24.737Z,100864.80
2022-12-18T09:13:52.042Z,100877.80
2022-12-18T09:16:20.586Z,100882.60
2022-12-18T09:18:48.388Z,100884.00
2022-12-18T09:21:20.576Z,100883.00
2022-12-18T09:23:51.621Z,100880.40
2022-12-18T09:26:18.021Z,100876.80
2022-12-18T09:28:45.012Z,100877.40
2022-12-18T09:31:14.215Z,100874.20
2022-12-18T09:33:40.784Z,100875.60
2022-12-18T09:36:11.432Z,100882.00
2022-12-18T09:38:38.530Z,100883.60
2022-12-18T09:41:41.898Z,100882.00
2022-12-18T09:44:26.060Z,100877.60
2022-12-18T09:47:29.603Z,100886.80
2022-12-18T09:50:23.303Z,100889.40
2022-12-18T09:52:56.170Z,100885.20
2022-12-18T09:55:36.899Z,100884.20
2022-12-18T09:58:48.331Z,100893.60
2022-12-18T10:01:22.316Z,100893.00
2022-12-18T10:03:50.683Z,100885.80
2022-12-18T10:06:25.391Z,100894.00
2022-12-18T10:09:38.079Z,100898.60
2022-12-18T10:12:37.437Z,100885.00
2022-12-18T10:15:34.160Z,100886.60
2022-12-18T10:18:41.011Z,100886.00
2022-12-18T10:21:22.695Z,100885.00
2022-12-18T10:24:04.287Z,100886.20
2022-12-18T10:26:33.772Z,100886.60
2022-12-18T10:29:05.505Z,100885.80
2022-12-18T10:31:32.625Z,100890.60
2022-12-18T10:33:59.212Z,100892.40
2022-12-18T10:36:26.244Z,100892.40
2022-12-18T10:38:52.734Z,100892.00
2022-12-18T10:41:19.709Z,100894.40
2022-12-18T10:43:49.217Z,100893.20
2022-12-18T10:46:21.282Z,100896.60
2022-12-18T10:48:47.618Z,100898.00
2022-12-18T10:51:31.435Z,100897.20
2022-12-18T10:54:06.618Z,100896.60
2022-12-18T10:56:37.825Z,100902.60
2022-12-18T10:59:07.923Z,100900.60
2022-12-18T11:01:50.541Z,100894.20
2022-12-18T11:04:26.516Z,100894.20
2022-12-18T11:07:03.867Z,100899.20
2022-12-18T11:09:33.763Z,100901.00
2022-12-18T11:12:15.532Z,100907.00
2022-12-18T11:14:52.798Z,100906.00
2022-12-18T11:17:32.987Z,100904.80
2022-12-18T11:20:03.159Z,100911.80
2022-12-18T11:22:37.382Z,100916.20
2022-12-18T11:25:36.209Z,100920.80
2022-12-18T11:28:30.387Z,100912.20
2022-12-18T11:31:26.813Z,100908.40
2022-12-18T11:34:27.930Z,100905.40
2022-12-18T11:36:49.589Z,100902.60
2022-12-18T11:39:43.354Z,100903.00
2022-12-18T11:42:28.678Z,100890.40
2022-12-18T11:45:02.299Z,100893.60
2022-12-18T11:48:19.206Z,100901.60
2022-12-18T11:51:02.744Z,100895.80
2022-12-18T11:53:31.440Z,100897.40
2022-12-18T11:56:27.403Z,100899.20
2022-12-18T11:59:16.352Z,100896.40
2022-12-18T12:01:54.775Z,100891.60
2022-12-18T12:04:40.467Z,100890.60
2022-12-18T12:07:48.597Z,100895.40
2022-12-18T12:10:46.412Z,100904.60
2022-12-18T12:13:27.557Z,100910.40
2022-12-18T12:16:16.094Z,100918.60
2022-12-18T12:19:30.683Z,100929.00
2022-12-18T12:22:40.284Z,100929.40
2022-12-18T12:25:59.934Z,100938.80
2022-12-18T12:29:01.061Z,100943.00
2022-12-18T12:31:59.379Z,100946.60
2022-12-18T12:35:11.662Z,100941.00
2022-12-18T12:37:55.401Z,100935.20
2022-12-18T12:40:51.305Z,100938.60
2022-12-18T12:43:43.293Z,100941.60
2022-12-18T12:46:22.345Z,100945.80
2022-12-18T12:48:57.798Z,100944.20
2022-12-18T12:51:34.595Z,100952.20
2022-12-18T12:54:06.204Z,100951.40
2022-12-18T12:56:51.370Z,100952.40
2022-12-18T12:59:49.861Z,100959.60
2022-12-18T13:03:07.047Z,100960.20
2022-12-18T13:05:47.309Z,100964.80
2022-12-18T13:08:29.308Z,100972.20
2022-12-18T13:11:19.089Z,100974.00
2022-12-18T13:13:52.702Z,100969.60
2022-12-18T13:16:26.187Z,100975.60
2022-12-18T13:18:57.751Z,100976.80
2022-12-18T13:21:34.113Z,100977.60
2022-12-18T13:24:25.722Z,100973.60
2022-12-18T13:26:52.882Z,100967.00
2022-12-18T13:29:44.439Z,100969.20
2022-12-18T13:32:26.225Z,100972.40
2022-12-18T13:35:18.461Z,100979.40
2022-12-18T13:37:54.198Z,100982.00
2022-12-18T13:40:43.693Z,100975.40
2022-12-18T13:43:22.470Z,100978.00
2022-12-18T13:46:01.098Z,100978.80
2022-12-18T13:48:30.152Z,100979.00
2022-12-18T13:51:09.613Z,100985.00
2022-12-18T13:53:45.537Z,100991.20
2022-12-18T13:56:18.587Z,101002.20
2022-12-18T13:58:45.148Z,101004.20
2022-12-18T14:01:25.443Z,101003.40
2022-12-18T14:03:53.462Z,101005.20
2022-12-18T14:06:19.872Z,101014.80
2022-12-18T14:08:47.731Z,101023.80
2022-12-18T14:11:23.930Z,101026.00
2022-12-18T14:13:53.389Z,101029.00
2022-12-18T14:16:20.846Z,101021.80
2022-12-18T14:18:58.139Z,101034.60
2022-12-18T14:21:34.972Z,101029.80
2022-12-18T14:24:20.159Z,101029.80
2022-12-18T14:26:49.612Z,101029.00
2022-12-18T14:29:26.218Z,101027.60
2022-12-18T14:32:25.184Z,101023.80
2022-12-18T14:34:57.220Z,101027.60
2022-12-18T14:37:28.326Z,101020.00
2022-12-18T14:40:05.764Z,101020.20
2022-12-18T14:42:37.531Z,101009.60
2022-12-18T14:45:44.512Z,101006.60
2022-12-18T14:48:23.018Z,101010.20
2022-12-18T14:51:08.378Z,101014.00
2022-12-18T14:53:52.090Z,101015.60
2022-12-18T14:56:28.178Z,101021.80
2022-12-18T14:58:59.733Z,101018.00
2022-12-18T15:01:31.099Z,101022.80
2022-12-18T15:04:00.284Z,101022.60
2022-12-18T15:06:35.325Z,101024.80
2022-12-18T15:09:21.389Z,101026.80
2022-12-18T15:11:48.351Z,101029.00
2022-12-18T15:14:56.407Z,101030.80
2022-12-18T15:17:25.785Z,101043.20
2022-12-18T15:20:02.074Z,101043.40
2022-12-18T15:22:37.062Z,101041.20
2022-12-18T15:25:32.264Z,101038.00
2022-12-18T15:27:58.653Z,101042.60
2022-12-18T15:30:26.851Z,101049.20
2022-12-18T15:33:25.976Z,101049.00
2022-12-18T15:36:06.008Z,101043.80
2022-12-18T15:38:33.060Z,101034.60
2022-12-18T15:40:59.836Z,101035.40
2022-12-18T15:43:38.034Z,101032.80
2022-12-18T15:46:09.987Z,101041.40
2022-12-18T15:48:42.285Z,101046.80
2022-12-18T15:51:26.889Z,101060.40
2022-12-18T15:54:00.320Z,101066.60
2022-12-18T15:56:46.207Z,101062.20
2022-12-18T15:59:19.566Z,101063.00
2022-12-18T16:01:54.135Z,101064.40
2022-12-18T16:04:22.949Z,101065.40
2022-12-18T16:09:37.709Z,101070.20
2022-12-18T16:12:05.509Z,101078.00
2022-12-18T16:14:33.847Z,101080.00
2022-12-18T16:17:04.342Z,101076.60
2022-12-18T16:19:31.037Z,101076.40
2022-12-18T16:21:59.703Z,101067.00
2022-12-18T16:24:30.512Z,101068.20
2022-12-18T16:27:01.269Z,101069.40
2022-12-18T16:29:29.889Z,101070.60
2022-12-18T16:32:01.584Z,101071.00
2022-12-18T16:34:34.872Z,101064.80
2022-12-18T16:37:06.780Z,101068.00
2022-12-18T16:39:35.264Z,101075.60
2022-12-18T16:42:19.748Z,101074.60
2022-12-18T16:44:48.695Z,101075.00
2022-12-18T16:47:16.345Z,101076.60
2022-12-18T16:49:45.871Z,101076.60
2022-12-18T16:52:12.946Z,101076.20
2022-12-18T16:54:39.459Z,101080.60
2022-12-18T16:57:05.897Z,101084.20
2022-12-18T16:59:32.663Z,101090.00
2022-12-18T17:01:59.202Z,101090.00
2022-12-18T17:04:25.762Z,101093.60
2022-12-18T17:06:53.795Z,101084.00
2022-12-18T17:09:25.409Z,101088.00
2022-12-18T17:11:53.813Z,101096.40
2022-12-18T17:14:23.750Z,101090.60
2022-12-18T17:17:07.289Z,101087.00
2022-12-18T17:19:37.379Z,101074.40
2022-12-18T17:22:04.869Z,101068.20
2022-12-18T17:24:34.756Z,101061.20
2022-12-18T17:27:02.384Z,101067.40
2022-12-18T17:29:28.791Z,101074.40
2022-12-18T17:31:55.417Z,101074.20
2022-12-18T17:34:23.735Z,101060.40
2022-12-18T17:36:50.234Z,101059.40
2022-12-18T17:39:20.608Z,101059.00
2022-12-18T17:41:49.190Z,101053.00
2022-12-18T17:44:17.225Z,101047.20
2022-12-18T17:46:46.019Z,101057.00
2022-12-18T17:49:14.007Z,101064.60
2022-12-18T17:51:42.952Z,101069.40
2022-12-18T17:54:10.804Z,101064.80
2022-12-18T17:56:38.480Z,101057.60
2022-12-18T17:59:05.892Z,101058.60
2022-12-18T18:01:32.624Z,101053.80
2022-12-18T18:04:00.445Z,101057.00
2022-12-18T18:06:27.394Z,101059.60
2022-12-18T18:08:54.298Z,101064.60
2022-12-18T18:11:42.528Z,101070.80
2022-12-18T18:14:17.026Z,101062.80
2022-12-18T18:16:49.338Z,101072.80
2022-12-18T18:19:22.526Z,101072.60
2022-12-18T18:21:53.480Z,101079.00
2022-12-18T18:24:23.707Z,101071.80
2022-12-18T18:26:50.768Z,101064.80
2022-12-18T18:29:22.222Z,101066.60
2022-12-18T18:31:49.097Z,101077.80
2022-12-18T18:34:25.724Z,101076.60
2022-12-18T18:36:52.633Z,101065.80
2022-12-18T18:39:19.944Z,101065.80
2022-12-18T18:41:48.189Z,101069.40
2022-12-18T18:44:17.572Z,101074.60
2022-12-18T18:46:45.337Z,101073.40
2022-12-18T18:49:13.687Z,101075.60
2022-12-18T18:51:41.548Z,101080.40
2022-12-18T18:54:09.021Z,101082.40
2022-12-18T18:59:29.148Z,101087.40
2022-12-18T19:02:00.654Z,101086.40
2022-12-18T19:04:31.536Z,101083.40
2022-12-18T19:06:57.897Z,101080.80
2022-12-18T19:09:24.699Z,101084.80
2022-12-18T19:12:10.669Z,101080.40
2022-12-18T19:14:37.157Z,101079.80
2022-12-18T19:17:03.517Z,101085.80
2022-12-18T19:19:30.905Z,101089.20
2022-12-18T19:21:57.559Z,101088.20
2022-12-18T19:24:24.064Z,101086.80
2022-12-18T19:26:52.064Z,101103.20
2022-12-18T19:29:20.113Z,101105.00
2022-12-18T19:31:46.532Z,101105.40
2022-12-18T19:34:13.422Z,101106.40
2022-12-18T19:36:41.014Z,101107.20
2022-12-18T19:39:14.949Z,101108.40
2022-12-18T19:41:43.002Z,101115.60
2022-12-18T19:44:12.851Z,101123.80
2022-12-18T19:46:41.660Z,101116.00
2022-12-18T19:49:10.792Z,101114.60
2022-12-18T19:51:38.397Z,101113.00
2022-12-18T19:54:05.482Z,101113.60
2022-12-18T19:56:34.736Z,101119.20
2022-12-18T19:59:03.777Z,101119.20
2022-12-18T20:01:31.529Z,101118.80
2022-12-18T20:03:59.610Z,101124.80
2022-12-18T20:06:33.303Z,101123.00
2022-12-18T20:09:05.623Z,101126.40
2022-12-18T20:11:36.384Z,101125.60
2022-12-18T20:14:10.648Z,101123.60
2022-12-18T20:16:37.372Z,101117.20
2022-12-18T20:19:05.226Z,101114.60
2022-12-18T20:21:32.088Z,101113.40
2022-12-18T20:24:00.132Z,101116.40
2022-12-18T20:26:27.234Z,101104.80
2022-12-18T20:28:55.274Z,101102.80
2022-12-18T20:31:22.318Z,101095.60
2022-12-18T20:33:51.102Z,101089.00
2022-12-18T20:36:22.086Z,101091.20
2022-12-18T20:38:57.002Z,101070.60
2022-12-18T20:41:26.213Z,101062.60
2022-12-18T20:43:57.115Z,101062.00
2022-12-18T20:46:24.524Z,101058.80
2022-12-18T20:48:51.012Z,101056.60
2022-12-18T20:51:20.716Z,101058.20
2022-12-18T20:53:48.018Z,101061.20
2022-12-18T20:56:22.085Z,101058.40
2022-12-18T20:58:51.801Z,101055.00
2022-12-18T21:01:23.610Z,101066.00
2022-12-18T21:03:51.499Z,101070.00
2022-12-18T21:06:22.660Z,101070.40
2022-12-18T21:08:50.203Z,101069.20
2022-12-18T21:11:38.578Z,101075.40
2022-12-18T21:14:15.246Z,101063.80
2022-12-18T21:16:43.956Z,101058.80
2022-12-18T21:19:13.863Z,101070.40
2022-12-18T21:21:41.507Z,101071.20
2022-12-18T21:24:09.855Z,101068.60
2022-12-18T21:26:44.881Z,101059.60
2022-12-18T21:29:15.817Z,101067.80
2022-12-18T21:31:43.794Z,101069.80
2022-12-18T21:34:22.882Z,101068.20
2022-12-18T21:36:49.733Z,101073.80
2022-12-18T21:39:17.755Z,101063.60
2022-12-18T21:42:05.463Z,101058.40
2022-12-18T21:44:32.353Z,101054.40
2022-12-18T21:47:21.412Z,101047.80
2022-12-18T21:49:53.399Z,101045.40
2022-12-18T21:52:27.240Z,101044.20
2022-12-18T21:55:08.376Z,101041.60
2022-12-18T21:57:37.008Z,101036.00
2022-12-18T22:00:05.638Z,101030.00
2022-12-18T22:02:32.495Z,101028.00
2022-12-18T22:04:59.036Z,101026.40
2022-12-18T22:07:26.576Z,101032.00
2022-12-18T22:09:53.003Z,101038.20
2022-12-18T22:12:35.501Z,101049.00
2022-12-18T22:15:05.059Z,101046.20
2022-12-18T22:17:31.890Z,101044.80
2022-12-18T22:19:58.309Z,101040.60
2022-12-18T22:22:24.795Z,101038.40
2022-12-18T22:24:52.025Z,101044.60
2022-12-18T22:27:18.467Z,101038.80
2022-12-18T22:30:03.430Z,101035.60
2022-12-18T22:32:34.951Z,101043.80
2022-12-18T22:35:12.694Z,101047.80
2022-12-18T22:37:41.902Z,101041.00
2022-12-18T22:40:23.669Z,101033.40
2022-12-18T22:42:50.722Z,101024.40
2022-12-18T22:45:19.511Z,101020.40
2022-12-18T22:47:45.915Z,101017.40
2022-12-18T22:50:14.307Z,101022.80
2022-12-18T22:52:41.343Z,101019.40
2022-12-18T22:55:08.615Z,101022.40
2022-12-18T22:57:35.239Z,101018.60
2022-12-18T23:00:03.186Z,101015.80
2022-12-18T23:02:29.746Z,101017.40
2022-12-18T23:04:56.314Z,101015.20
2022-12-18T23:07:22.719Z,101012.00
2022-12-18T23:09:50.552Z,101006.80
2022-12-18T23:12:20.142Z,101002.60
2022-12-18T23:14:47.281Z,100999.80
2022-12-18T23:17:13.865Z,100996.60
2022-12-18T23:19:45.529Z,100992.40
2022-12-18T23:22:15.325Z,100988.20
2022-12-18T23:24:41.968Z,100979.40
2022-12-18T23:27:11.936Z,100980.60
2022-12-18T23:29:39.998Z,100976.60
2022-12-18T23:32:07.937Z,100972.80
2022-12-18T23:34:34.799Z,100977.20
2022-12-18T23:37:03.500Z,100980.20
2022-12-18T23:39:30.461Z,100978.60
2022-12-18T23:41:58.694Z,100984.40
2022-12-18T23:44:25.648Z,100985.20
2022-12-18T23:46:52.296Z,100984.00
2022-12-18T23:49:19.104Z,100988.60
2022-12-18T23:51:45.472Z,100990.00
2022-12-18T23:54:11.893Z,100983.80
2022-12-18T23:56:38.280Z,100980.60
2022-12-18T23:59:04.753Z,100968.20
